DAUU/OGX METAR and TAF weather

Enter ICAO airport designator
Station Type Date Time Source
DAUU METAR 2020/01/21 21:00 UTC NOAA

DAUU 212100Z 14012KT 8000 NSC 18/M04 Q1017


Station Type Date Time Source
DAUU Decoded METAR 2020/01/21 21:00 UTC NOAA

Ouargla, Algeria (DAUU) 31-55N 005-24E 141M
Jan 21, 2020 - 04:00 PM EST / 2020.01.21 2100 UTC
Wind: from the SE (140 degrees) at 14 MPH (12 KT):0
Visibility: 4 mile(s):0
Temperature: 64 F (18 C)
Dew Point: 24 F (-4 C)
Relative Humidity: 22%
Pressure (altimeter): 30.03 in. Hg (1017 hPa)
ob: DAUU 212100Z 14012KT 8000 NSC 18/M04 Q1017
cycle: 21

Station Type Date Time Source
DAUU TAF 2017/11/09 18:03 UTC NOAA

TAF DAUU 091700Z 0918/1009 34012KT 9999 FEW040 SCT100 PROB40
TEMPO 0918/0924 34015G25KT 5000 -TSRA FEW036CB

Example: see airport list